首页
METAR-TAF:

METAR-TAF

机场 :

Earlton, 安大略省, 加拿大

纬度: 47-42N, 经度: 079-51W, 海拔: 243米

当前天气观测

该预报发布于25分钟前的11:00 UTC
风速7节,风向西北
温度 10°C
湿度 87%
气压 1014 hPa
能見度: 14.5公里
阴天层高于2000英尺

METAR: CYXR 161100Z AUTO 32007KT 9SM OVC020 10/08 A2993 RMK SLP142

时间: 07:25 (11:25 UTC)

预报

该预报发布于17小时和45分钟前的17:40 UTC
预报有效从15日的 18点(UTC)到 15日的 24点(UTC)
风速10节,风向西转西北,有时为20节阵风
能見度: 10公里
多云层高于4000英尺
短暂存在
从 15日的 18点(UTC)到 15日的 24点(UTC)
能見度: 10公里
多云层高于2000英尺
小阵雨

TAF: CYXR 151740Z 1518/1524 29010G20KT P6SM BKN040 TEMPO 1518/1524 P6SM -SHRA BKN020 RMK FCST BASED ON AUTO OBS. NXT FCST WILL BE ISSUED AT 161145Z

超过4000个机场的气象观测和天气预报(METAR&TAF报告)。

可查询的气象台以黄色和红色小点在地图上表示。

将鼠标移到小点上方,可查看气象台名称。

然后点击查看天气观测和预报。

如需切换地图:点击带黑十字的绿色按钮放大地图;点击带横线的绿色按钮缩小地图;或者点击绿色箭头查看邻近地区的地图。


METAR-TAF: